createdAt,value
2023-02-27T00:00:24.655Z,1.84
2023-02-27T00:03:13.192Z,1.78
2023-02-27T00:05:42.832Z,1.78
2023-02-27T00:08:11.383Z,1.78
2023-02-27T00:10:40.072Z,1.80
2023-02-27T00:13:10.327Z,1.70
2023-02-27T00:15:41.230Z,1.70
2023-02-27T00:18:09.831Z,1.70
2023-02-27T00:20:39.016Z,1.60
2023-02-27T00:23:08.732Z,1.50
2023-02-27T00:25:37.621Z,1.40
2023-02-27T00:28:06.202Z,1.36
2023-02-27T00:30:34.792Z,1.30
2023-02-27T00:33:04.396Z,1.30
2023-02-27T00:35:35.131Z,1.20
2023-02-27T00:38:03.917Z,1.16
2023-02-27T00:40:32.503Z,1.10
2023-02-27T00:43:00.990Z,1.10
2023-02-27T00:45:31.221Z,1.20
2023-02-27T00:47:59.995Z,1.20
2023-02-27T00:50:28.687Z,1.10
2023-02-27T00:52:57.267Z,1.10
2023-02-27T00:55:27.238Z,1.10
2023-02-27T00:57:56.164Z,1.00
2023-02-27T01:00:25.151Z,1.00
2023-02-27T01:02:55.562Z,1.00
2023-02-27T01:05:25.537Z,1.00
2023-02-27T01:07:54.918Z,0.94
2023-02-27T01:10:23.608Z,0.90
2023-02-27T01:12:52.400Z,0.90
2023-02-27T01:15:21.193Z,0.90
2023-02-27T01:17:49.771Z,0.90
2023-02-27T01:20:18.767Z,0.80
2023-02-27T01:22:47.721Z,0.76
2023-02-27T01:25:16.347Z,0.70
2023-02-27T01:27:45.031Z,0.70
2023-02-27T01:30:15.999Z,0.64
2023-02-27T01:32:46.432Z,0.60
2023-02-27T01:35:15.299Z,0.60
2023-02-27T01:37:44.977Z,0.60
2023-02-27T01:40:14.573Z,0.60
2023-02-27T01:42:43.196Z,0.60
2023-02-27T01:45:12.593Z,0.60
2023-02-27T01:47:50.189Z,0.60
2023-02-27T01:50:19.964Z,0.66
2023-02-27T01:52:55.758Z,0.70
2023-02-27T01:55:26.343Z,0.80
2023-02-27T01:57:55.587Z,0.80
2023-02-27T02:00:25.375Z,0.80
2023-02-27T02:03:10.580Z,0.80
2023-02-27T02:05:40.486Z,0.80
2023-02-27T02:08:10.159Z,0.90
2023-02-27T02:10:40.287Z,0.94
2023-02-27T02:13:10.046Z,1.00
2023-02-27T02:15:48.196Z,1.00
2023-02-27T02:18:50.417Z,1.00
2023-02-27T02:21:24.923Z,1.00
2023-02-27T02:24:16.669Z,1.08
2023-02-27T02:27:19.349Z,1.02
2023-02-27T02:30:15.072Z,1.10
2023-02-27T02:33:17.653Z,1.10
2023-02-27T02:36:10.617Z,1.20
2023-02-27T02:39:09.471Z,1.20
2023-02-27T02:41:44.673Z,1.30
2023-02-27T02:44:40.979Z,1.30
2023-02-27T02:47:24.824Z,1.36
2023-02-27T02:50:33.978Z,1.30
2023-02-27T02:53:37.769Z,1.40
2023-02-27T02:56:18.382Z,1.40
2023-02-27T02:59:22.247Z,1.40
2023-02-27T03:01:58.816Z,1.48
2023-02-27T03:05:01.707Z,1.50
2023-02-27T03:08:25.290Z,1.60
2023-02-27T03:11:06.662Z,1.60
2023-02-27T03:13:57.682Z,1.60
2023-02-27T03:16:59.455Z,1.50
2023-02-27T03:19:38.990Z,1.48
2023-02-27T03:22:17.599Z,1.40
2023-02-27T03:24:54.278Z,1.40
2023-02-27T03:27:25.412Z,1.40
2023-02-27T03:30:07.516Z,1.40
2023-02-27T03:32:52.691Z,1.40
2023-02-27T03:35:22.458Z,1.40
2023-02-27T03:38:23.753Z,1.40
2023-02-27T03:41:36.371Z,1.40
2023-02-27T03:44:36.634Z,1.40
2023-02-27T03:47:05.285Z,1.50
2023-02-27T03:49:33.971Z,1.50
2023-02-27T03:52:02.555Z,1.58
2023-02-27T03:54:37.648Z,1.60
2023-02-27T03:57:09.167Z,1.60
2023-02-27T03:59:38.762Z,1.70
2023-02-27T04:02:08.583Z,1.70
2023-02-27T04:04:37.458Z,1.70
2023-02-27T04:07:54.066Z,1.70
2023-02-27T04:11:13.238Z,1.60
2023-02-27T04:14:07.110Z,1.60
2023-02-27T04:17:15.941Z,1.60
2023-02-27T04:20:10.914Z,1.60
2023-02-27T04:22:55.296Z,1.70
2023-02-27T04:26:09.759Z,1.70
2023-02-27T04:29:04.967Z,1.80
2023-02-27T04:31:49.772Z,1.80
2023-02-27T04:34:33.479Z,1.80
2023-02-27T04:37:14.553Z,1.80
2023-02-27T04:39:53.696Z,1.76
2023-02-27T04:42:34.456Z,1.70
2023-02-27T04:45:08.771Z,1.80
2023-02-27T04:47:47.150Z,1.84
2023-02-27T04:50:30.420Z,1.90
2023-02-27T04:53:09.376Z,1.90
2023-02-27T04:55:45.264Z,1.94
2023-02-27T04:58:32.320Z,2.00
2023-02-27T05:01:17.395Z,2.00
2023-02-27T05:03:50.231Z,2.00
2023-02-27T05:06:23.489Z,1.90
2023-02-27T05:09:41.516Z,1.90
2023-02-27T05:12:45.900Z,1.90
2023-02-27T05:15:41.098Z,2.00
2023-02-27T05:18:14.483Z,2.00
2023-02-27T05:21:17.738Z,2.08
2023-02-27T05:24:30.868Z,2.06
2023-02-27T05:27:33.556Z,2.00
2023-02-27T05:30:49.960Z,2.00
2023-02-27T05:33:25.794Z,2.00
2023-02-27T05:36:21.022Z,2.00
2023-02-27T05:39:00.087Z,2.00
2023-02-27T05:41:41.536Z,2.10
2023-02-27T05:44:17.901Z,2.10
2023-02-27T05:47:00.908Z,2.10
2023-02-27T05:50:06.678Z,2.10
2023-02-27T05:52:37.822Z,2.00
2023-02-27T05:55:20.549Z,2.00
2023-02-27T05:58:08.990Z,2.00
2023-02-27T06:01:01.341Z,2.00
2023-02-27T06:03:33.617Z,2.00
2023-02-27T06:06:06.925Z,2.10
2023-02-27T06:08:35.894Z,2.20
2023-02-27T06:11:04.696Z,2.20
2023-02-27T06:13:33.269Z,2.20
2023-02-27T06:16:02.167Z,2.20
2023-02-27T06:18:30.849Z,2.20
2023-02-27T06:20:59.636Z,2.20
2023-02-27T06:23:28.325Z,2.20
2023-02-27T06:25:57.118Z,2.10
2023-02-27T06:28:25.696Z,2.10
2023-02-27T06:30:57.464Z,2.10
2023-02-27T06:33:26.652Z,2.20
2023-02-27T06:35:55.250Z,2.30
2023-02-27T06:38:23.923Z,2.30
2023-02-27T06:40:52.611Z,2.36
2023-02-27T06:43:23.469Z,2.40
2023-02-27T06:45:55.688Z,2.34
2023-02-27T06:48:24.195Z,2.30
2023-02-27T06:50:56.775Z,2.40
2023-02-27T06:53:25.849Z,2.40
2023-02-27T06:55:54.720Z,2.50
2023-02-27T06:58:24.967Z,2.60
2023-02-27T07:00:53.508Z,2.70
2023-02-27T07:03:22.050Z,2.70
2023-02-27T07:05:50.672Z,2.64
2023-02-27T07:08:19.182Z,2.60
2023-02-27T07:10:49.263Z,2.70
2023-02-27T07:13:19.616Z,2.70
2023-02-27T07:15:48.497Z,2.70
2023-02-27T07:18:17.245Z,2.70
2023-02-27T07:20:45.843Z,2.70
2023-02-27T07:23:14.414Z,2.70
2023-02-27T07:25:43.099Z,2.80
2023-02-27T07:28:11.714Z,2.80
2023-02-27T07:30:40.474Z,2.88
2023-02-27T07:33:09.466Z,2.90
2023-02-27T07:35:38.182Z,2.90
2023-02-27T07:38:06.853Z,2.82
2023-02-27T07:40:35.546Z,2.80
2023-02-27T07:43:04.428Z,2.82
2023-02-27T07:45:33.022Z,2.86
2023-02-27T07:48:02.144Z,2.82
2023-02-27T07:50:30.696Z,2.80
2023-02-27T07:52:59.280Z,2.80
2023-02-27T07:55:27.862Z,2.90
2023-02-27T07:57:56.444Z,2.86
2023-02-27T08:00:25.235Z,2.80
2023-02-27T08:02:53.982Z,2.80
2023-02-27T08:05:22.757Z,2.80
2023-02-27T08:07:51.408Z,2.80
2023-02-27T08:10:20.433Z,2.80
2023-02-27T08:12:48.974Z,2.90
2023-02-27T08:15:17.772Z,2.86
2023-02-27T08:17:47.371Z,2.90
2023-02-27T08:20:17.020Z,3.00
2023-02-27T08:22:45.571Z,3.00
2023-02-27T08:25:14.467Z,3.00
2023-02-27T08:27:43.247Z,3.12
2023-02-27T08:30:13.160Z,3.30
2023-02-27T08:32:42.060Z,3.40
2023-02-27T08:35:10.811Z,3.42
2023-02-27T08:37:39.462Z,3.50
2023-02-27T08:40:11.118Z,3.50
2023-02-27T08:42:39.970Z,3.60
2023-02-27T08:45:11.030Z,3.70
2023-02-27T08:47:39.597Z,3.60
2023-02-27T08:50:09.798Z,3.60
2023-02-27T08:52:38.914Z,3.60
2023-02-27T08:55:08.619Z,3.70
2023-02-27T08:57:37.414Z,3.80
2023-02-27T09:00:08.112Z,3.90
2023-02-27T09:02:36.978Z,4.00
2023-02-27T09:05:06.265Z,4.00
2023-02-27T09:07:34.832Z,4.02
2023-02-27T09:10:04.185Z,4.10
2023-02-27T09:12:32.926Z,4.20
2023-02-27T09:15:01.414Z,4.30
2023-02-27T09:17:29.992Z,4.40
2023-02-27T09:19:58.962Z,4.50
2023-02-27T09:22:27.575Z,4.62
2023-02-27T09:24:56.455Z,4.70
2023-02-27T09:27:26.270Z,4.80
2023-02-27T09:29:56.592Z,4.90
2023-02-27T09:32:27.139Z,4.90
2023-02-27T09:34:55.819Z,4.96
2023-02-27T09:37:25.282Z,5.00
2023-02-27T09:39:54.005Z,5.00
2023-02-27T09:42:33.622Z,5.00
2023-02-27T09:45:06.560Z,5.10
2023-02-27T09:47:44.689Z,5.20
2023-02-27T09:50:27.358Z,5.24
2023-02-27T09:52:56.250Z,5.30
2023-02-27T09:55:30.058Z,5.40
2023-02-27T09:58:04.642Z,5.40
2023-02-27T10:01:01.018Z,5.40
2023-02-27T10:03:46.091Z,5.30
2023-02-27T10:06:30.632Z,5.30
2023-02-27T10:09:08.141Z,5.30
2023-02-27T10:12:39.504Z,5.30
2023-02-27T10:15:24.569Z,5.20
2023-02-27T10:18:26.825Z,5.10
2023-02-27T10:21:19.035Z,5.14
2023-02-27T10:24:30.063Z,5.30
2023-02-27T10:27:02.860Z,5.38
2023-02-27T10:29:42.589Z,5.42
2023-02-27T10:32:27.128Z,5.50
2023-02-27T10:35:31.702Z,5.60
2023-02-27T10:38:27.342Z,5.80
2023-02-27T10:40:59.156Z,5.96
2023-02-27T10:43:27.857Z,6.08
2023-02-27T10:46:00.755Z,6.10
2023-02-27T10:48:32.436Z,6.20
2023-02-27T10:51:29.481Z,6.30
2023-02-27T10:54:19.433Z,6.50
2023-02-27T10:56:54.932Z,6.78
2023-02-27T10:59:38.662Z,7.26
2023-02-27T11:02:16.204Z,7.42
2023-02-27T11:04:54.164Z,7.70
2023-02-27T11:07:31.289Z,7.86
2023-02-27T11:10:23.221Z,7.90
2023-02-27T11:13:07.794Z,7.74
2023-02-27T11:15:38.836Z,7.60
2023-02-27T11:18:31.604Z,7.80
2023-02-27T11:21:30.819Z,7.80
2023-02-27T11:24:02.420Z,7.80
2023-02-27T11:26:40.834Z,8.10
2023-02-27T11:29:20.604Z,8.40
2023-02-27T11:31:55.554Z,8.40
2023-02-27T11:34:40.294Z,8.00
2023-02-27T11:37:38.266Z,7.70
2023-02-27T11:40:09.720Z,7.70
2023-02-27T11:42:45.778Z,7.50
2023-02-27T11:46:10.242Z,7.50
2023-02-27T11:48:48.995Z,7.70
2023-02-27T11:51:41.950Z,7.56
2023-02-27T11:54:28.996Z,7.38
2023-02-27T11:57:11.175Z,7.20
2023-02-27T11:59:44.798Z,6.98
2023-02-27T12:02:39.529Z,6.80
2023-02-27T12:05:22.730Z,6.60
2023-02-27T12:08:23.541Z,6.54
2023-02-27T12:11:14.848Z,6.60
2023-02-27T12:13:51.634Z,6.50
2023-02-27T12:16:27.004Z,6.40
2023-02-27T12:19:03.579Z,6.40
2023-02-27T12:21:41.860Z,6.40
2023-02-27T12:24:13.315Z,6.40
2023-02-27T12:26:47.591Z,6.40
2023-02-27T12:29:34.349Z,6.42
2023-02-27T12:32:25.245Z,6.40
2023-02-27T12:35:12.586Z,6.50
2023-02-27T12:37:41.167Z,6.50
2023-02-27T12:40:19.435Z,6.44
2023-02-27T12:43:11.007Z,6.40
2023-02-27T12:46:26.778Z,6.40
2023-02-27T12:49:56.665Z,6.30
2023-02-27T12:52:46.790Z,6.32
2023-02-27T12:55:34.582Z,6.32
2023-02-27T12:58:40.694Z,6.38
2023-02-27T13:01:24.565Z,6.40
2023-02-27T13:04:06.065Z,6.30
2023-02-27T13:06:52.011Z,6.30
2023-02-27T13:09:56.551Z,6.12
2023-02-27T13:12:46.016Z,6.00
2023-02-27T13:15:51.366Z,5.90
2023-02-27T13:18:54.472Z,5.80
2023-02-27T13:21:32.668Z,5.80
2023-02-27T13:24:29.359Z,5.70
2023-02-27T13:27:33.134Z,5.70
2023-02-27T13:30:24.441Z,5.70
2023-02-27T13:33:08.427Z,5.70
2023-02-27T13:36:13.125Z,5.70
2023-02-27T13:38:47.441Z,5.74
2023-02-27T13:41:24.966Z,5.80
2023-02-27T13:44:20.292Z,5.80
2023-02-27T13:46:48.734Z,5.90
2023-02-27T13:49:29.659Z,5.98
2023-02-27T13:52:05.379Z,6.00
2023-02-27T13:54:41.742Z,6.00
2023-02-27T13:57:28.899Z,6.00
2023-02-27T14:00:05.048Z,5.98
2023-02-27T14:02:59.758Z,6.04
2023-02-27T14:05:40.074Z,6.10
2023-02-27T14:08:27.000Z,6.20
2023-02-27T14:11:19.005Z,6.20
2023-02-27T14:13:50.897Z,6.20
2023-02-27T14:16:38.322Z,6.20
2023-02-27T14:19:16.225Z,6.20
2023-02-27T14:22:01.878Z,6.20
2023-02-27T14:25:02.880Z,6.10
2023-02-27T14:27:44.343Z,6.00
2023-02-27T14:30:38.373Z,6.00
2023-02-27T14:33:37.726Z,5.92
2023-02-27T14:36:17.395Z,5.90
2023-02-27T14:38:47.520Z,5.80
2023-02-27T14:41:34.581Z,5.80
2023-02-27T14:44:04.221Z,5.80
2023-02-27T14:46:39.676Z,5.78
2023-02-27T14:49:38.215Z,5.70
2023-02-27T14:52:30.045Z,5.70
2023-02-27T14:55:30.173Z,5.70
2023-02-27T14:58:20.378Z,5.60
2023-02-27T15:00:58.458Z,5.60
2023-02-27T15:03:53.909Z,5.60
2023-02-27T15:06:35.862Z,5.60
2023-02-27T15:09:05.083Z,5.60
2023-02-27T15:11:34.387Z,5.70
2023-02-27T15:14:06.815Z,5.62
2023-02-27T15:16:41.769Z,5.60
2023-02-27T15:19:20.775Z,5.60
2023-02-27T15:21:56.323Z,5.60
2023-02-27T15:24:49.761Z,5.60
2023-02-27T15:27:23.993Z,5.60
2023-02-27T15:29:58.268Z,5.60
2023-02-27T15:32:36.082Z,5.58
2023-02-27T15:35:22.998Z,5.56
2023-02-27T15:37:58.704Z,5.50
2023-02-27T15:40:30.558Z,5.50
2023-02-27T15:43:00.802Z,5.50
2023-02-27T15:45:36.378Z,5.50
2023-02-27T15:48:05.681Z,5.50
2023-02-27T15:50:38.249Z,5.40
2023-02-27T15:53:13.401Z,5.40
2023-02-27T15:55:47.276Z,5.30
2023-02-27T15:58:30.598Z,5.30
2023-02-27T16:01:07.667Z,5.40
2023-02-27T16:03:40.678Z,5.36
2023-02-27T16:06:16.266Z,5.40
2023-02-27T16:09:00.562Z,5.40
2023-02-27T16:11:33.209Z,5.30
2023-02-27T16:14:02.755Z,5.32
2023-02-27T16:16:39.139Z,5.32
2023-02-27T16:19:32.879Z,5.38
2023-02-27T16:22:19.711Z,5.30
2023-02-27T16:24:49.945Z,5.30
2023-02-27T16:27:28.211Z,5.30
2023-02-27T16:30:03.167Z,5.30
2023-02-27T16:32:40.505Z,5.30
2023-02-27T16:35:22.283Z,5.30
2023-02-27T16:37:51.998Z,5.24
2023-02-27T16:40:26.798Z,5.20
2023-02-27T16:42:56.547Z,5.20
2023-02-27T16:45:29.136Z,5.20
2023-02-27T16:48:00.398Z,5.14
2023-02-27T16:50:40.779Z,5.10
2023-02-27T16:53:09.518Z,5.10
2023-02-27T16:55:43.665Z,5.10
2023-02-27T16:58:16.666Z,5.10
2023-02-27T17:00:47.581Z,5.00
2023-02-27T17:03:16.346Z,5.00
2023-02-27T17:05:45.147Z,4.92
2023-02-27T17:08:13.935Z,4.90
2023-02-27T17:10:42.716Z,4.90
2023-02-27T17:13:11.611Z,4.90
2023-02-27T17:15:40.295Z,4.90
2023-02-27T17:18:09.550Z,4.88
2023-02-27T17:20:38.185Z,4.80
2023-02-27T17:23:10.265Z,4.80
2023-02-27T17:25:42.057Z,4.80
2023-02-27T17:28:11.087Z,4.70
2023-02-27T17:30:40.753Z,4.70
2023-02-27T17:33:09.615Z,4.60
2023-02-27T17:35:38.300Z,4.60
2023-02-27T17:38:07.553Z,4.60
2023-02-27T17:40:39.872Z,4.52
2023-02-27T17:43:08.571Z,4.50
2023-02-27T17:45:38.876Z,4.50
2023-02-27T17:48:07.459Z,4.46
2023-02-27T17:50:36.557Z,4.40
2023-02-27T17:53:05.768Z,4.40
2023-02-27T17:55:34.441Z,4.32
2023-02-27T17:58:03.248Z,4.30
2023-02-27T18:00:33.309Z,4.30
2023-02-27T18:03:02.451Z,4.22
2023-02-27T18:05:31.133Z,4.20
2023-02-27T18:07:59.919Z,4.20
2023-02-27T18:10:28.604Z,4.20
2023-02-27T18:12:57.404Z,4.12
2023-02-27T18:15:26.452Z,4.10
2023-02-27T18:17:55.484Z,4.20
2023-02-27T18:20:24.396Z,4.20
2023-02-27T18:22:53.269Z,4.20
2023-02-27T18:25:23.823Z,4.16
2023-02-27T18:27:55.395Z,4.10
2023-02-27T18:30:24.552Z,4.10
2023-02-27T18:32:57.138Z,4.10
2023-02-27T18:35:26.942Z,4.00
2023-02-27T18:37:56.349Z,3.90
2023-02-27T18:40:26.690Z,3.90
2023-02-27T18:42:55.876Z,3.80
2023-02-27T18:45:24.970Z,3.80
2023-02-27T18:47:54.488Z,3.80
2023-02-27T18:50:24.087Z,3.80
2023-02-27T18:52:54.639Z,3.78
2023-02-27T18:55:23.255Z,3.70
2023-02-27T18:57:52.096Z,3.70
2023-02-27T19:00:24.416Z,3.60
2023-02-27T19:02:53.126Z,3.60
2023-02-27T19:05:21.892Z,3.60
2023-02-27T19:07:50.632Z,3.60
2023-02-27T19:10:19.413Z,3.54
2023-02-27T19:12:51.356Z,3.60
2023-02-27T19:15:19.961Z,3.60
2023-02-27T19:17:48.750Z,3.60
2023-02-27T19:20:19.047Z,3.70
2023-02-27T19:22:47.968Z,3.70
2023-02-27T19:25:17.069Z,3.70
2023-02-27T19:27:47.087Z,3.70
2023-02-27T19:30:16.076Z,3.70
2023-02-27T19:32:45.071Z,3.70
2023-02-27T19:35:15.803Z,3.70
2023-02-27T19:37:53.911Z,3.60
2023-02-27T19:40:23.660Z,3.50
2023-02-27T19:42:52.826Z,3.40
2023-02-27T19:45:21.616Z,3.40
2023-02-27T19:47:50.194Z,3.40
2023-02-27T19:50:19.092Z,3.40
2023-02-27T19:52:47.674Z,3.40
2023-02-27T19:55:16.456Z,3.30
2023-02-27T19:57:44.943Z,3.30
2023-02-27T20:00:15.631Z,3.38
2023-02-27T20:02:44.673Z,3.40
2023-02-27T20:05:13.457Z,3.40
2023-02-27T20:07:42.763Z,3.40
2023-02-27T20:10:12.474Z,3.40
2023-02-27T20:12:41.158Z,3.40
2023-02-27T20:15:11.839Z,3.40
2023-02-27T20:17:42.276Z,3.40
2023-02-27T20:20:12.046Z,3.40
2023-02-27T20:22:44.881Z,3.40
2023-02-27T20:25:14.234Z,3.40
2023-02-27T20:27:42.907Z,3.30
2023-02-27T20:30:12.734Z,3.24
2023-02-27T20:32:41.323Z,3.20
2023-02-27T20:35:11.300Z,3.20
2023-02-27T20:37:40.317Z,3.10
2023-02-27T20:40:10.302Z,3.10
2023-02-27T20:42:38.921Z,3.10
2023-02-27T20:45:08.847Z,3.10
2023-02-27T20:47:37.414Z,3.10
2023-02-27T20:50:06.905Z,3.10
2023-02-27T20:52:35.511Z,3.10
2023-02-27T20:55:05.116Z,3.10
2023-02-27T20:57:33.816Z,3.10
2023-02-27T21:00:02.603Z,3.00
2023-02-27T21:02:31.385Z,3.00
2023-02-27T21:05:00.174Z,3.00
2023-02-27T21:07:29.072Z,2.90
2023-02-27T21:09:57.650Z,2.90
2023-02-27T21:12:26.235Z,2.80
2023-02-27T21:14:56.240Z,2.76
2023-02-27T21:17:26.488Z,2.70
2023-02-27T21:19:55.059Z,2.70
2023-02-27T21:22:23.965Z,2.70
2023-02-27T21:24:53.920Z,2.70
2023-02-27T21:27:22.764Z,2.70
2023-02-27T21:29:51.464Z,2.70
2023-02-27T21:32:20.270Z,2.74
2023-02-27T21:34:49.138Z,2.70
2023-02-27T21:37:17.709Z,2.70
2023-02-27T21:39:50.899Z,2.70
2023-02-27T21:42:19.587Z,2.60
2023-02-27T21:44:48.273Z,2.56
2023-02-27T21:47:17.069Z,2.50
2023-02-27T21:49:45.661Z,2.50
2023-02-27T21:52:14.235Z,2.52
2023-02-27T21:54:43.025Z,2.54
2023-02-27T21:57:12.025Z,2.60
2023-02-27T21:59:42.037Z,2.60
2023-02-27T22:02:13.818Z,2.60
2023-02-27T22:04:42.399Z,2.60
2023-02-27T22:07:11.541Z,2.60
2023-02-27T22:09:40.487Z,2.60
2023-02-27T22:12:09.460Z,2.46
2023-02-27T22:14:38.050Z,2.40
2023-02-27T22:17:06.735Z,2.42
2023-02-27T22:19:35.685Z,2.50
2023-02-27T22:22:04.410Z,2.58
2023-02-27T22:24:33.210Z,2.60
2023-02-27T22:27:01.897Z,2.70
2023-02-27T22:29:31.905Z,2.70
2023-02-27T22:32:00.563Z,2.70
2023-02-27T22:34:29.384Z,2.68
2023-02-27T22:36:58.276Z,2.60
2023-02-27T22:39:27.062Z,2.60
2023-02-27T22:41:56.876Z,2.60
2023-02-27T22:44:26.076Z,2.50
2023-02-27T22:46:56.157Z,2.50
2023-02-27T22:49:24.905Z,2.50
2023-02-27T22:51:53.592Z,2.48
2023-02-27T22:54:23.558Z,2.50
2023-02-27T22:56:54.008Z,2.50
2023-02-27T22:59:23.956Z,2.50
2023-02-27T23:01:54.195Z,2.50
2023-02-27T23:04:22.849Z,2.50
2023-02-27T23:06:52.900Z,2.40
2023-02-27T23:09:25.474Z,2.40
2023-02-27T23:11:55.361Z,2.40
2023-02-27T23:14:24.264Z,2.40
2023-02-27T23:16:52.852Z,2.38
2023-02-27T23:19:23.047Z,2.30
2023-02-27T23:21:51.642Z,2.30
2023-02-27T23:24:20.879Z,2.30
2023-02-27T23:26:52.316Z,2.40
2023-02-27T23:29:20.983Z,2.40
2023-02-27T23:31:49.869Z,2.40
2023-02-27T23:34:18.662Z,2.40
2023-02-27T23:36:47.343Z,2.40
2023-02-27T23:39:16.028Z,2.40
2023-02-27T23:41:44.621Z,2.40
2023-02-27T23:44:13.297Z,2.40
2023-02-27T23:46:41.881Z,2.40
2023-02-27T23:49:11.397Z,2.30
2023-02-27T23:51:40.384Z,2.30
2023-02-27T23:54:08.977Z,2.30
2023-02-27T23:56:37.861Z,2.30
2023-02-27T23:59:07.624Z,2.30
